sensor_id;sensor_type;location;lat;lon;timestamp;P1;durP1;ratioP1;P2;durP2;ratioP2
17127;SDS011;8679;50.842;4.322;2023-07-22T00:00:29;2.63;;;1.65;;
17127;SDS011;8679;50.842;4.322;2023-07-22T00:02:56;4.95;;;2.33;;
17127;SDS011;8679;50.842;4.322;2023-07-22T00:05:21;2.85;;;2.30;;
17127;SDS011;8679;50.842;4.322;2023-07-22T00:07:52;3.03;;;1.80;;
17127;SDS011;8679;50.842;4.322;2023-07-22T00:10:17;2.83;;;2.03;;
17127;SDS011;8679;50.842;4.322;2023-07-22T00:12:43;3.45;;;2.03;;
17127;SDS011;8679;50.842;4.322;2023-07-22T00:15:09;3.42;;;2.38;;
17127;SDS011;8679;50.842;4.322;2023-07-22T00:17:40;3.30;;;1.92;;
17127;SDS011;8679;50.842;4.322;2023-07-22T00:20:06;3.25;;;2.05;;
17127;SDS011;8679;50.842;4.322;2023-07-22T00:22:36;2.95;;;1.80;;
17127;SDS011;8679;50.842;4.322;2023-07-22T00:25:09;5.65;;;2.35;;
17127;SDS011;8679;50.842;4.322;2023-07-22T00:27:39;4.10;;;2.15;;
17127;SDS011;8679;50.842;4.322;2023-07-22T00:30:06;6.18;;;2.90;;
17127;SDS011;8679;50.842;4.322;2023-07-22T00:32:32;4.70;;;2.72;;
17127;SDS011;8679;50.842;4.322;2023-07-22T00:34:58;4.75;;;2.40;;
17127;SDS011;8679;50.842;4.322;2023-07-22T00:37:24;4.45;;;2.13;;
17127;SDS011;8679;50.842;4.322;2023-07-22T00:39:50;3.28;;;1.88;;
17127;SDS011;8679;50.842;4.322;2023-07-22T00:42:16;4.22;;;2.50;;
17127;SDS011;8679;50.842;4.322;2023-07-22T00:44:41;3.83;;;2.17;;
17127;SDS011;8679;50.842;4.322;2023-07-22T00:47:07;2.85;;;1.80;;
17127;SDS011;8679;50.842;4.322;2023-07-22T00:49:33;2.92;;;1.58;;
17127;SDS011;8679;50.842;4.322;2023-07-22T00:52:00;3.92;;;2.40;;
17127;SDS011;8679;50.842;4.322;2023-07-22T00:54:27;3.50;;;2.00;;
17127;SDS011;8679;50.842;4.322;2023-07-22T00:56:54;2.63;;;1.50;;
17127;SDS011;8679;50.842;4.322;2023-07-22T00:59:21;4.10;;;2.15;;
17127;SDS011;8679;50.842;4.322;2023-07-22T01:01:47;2.50;;;1.65;;
17127;SDS011;8679;50.842;4.322;2023-07-22T01:04:13;2.65;;;2.00;;
17127;SDS011;8679;50.842;4.322;2023-07-22T01:06:40;3.63;;;1.77;;
17127;SDS011;8679;50.842;4.322;2023-07-22T01:09:05;5.97;;;1.98;;
17127;SDS011;8679;50.842;4.322;2023-07-22T01:11:34;8.73;;;2.42;;
17127;SDS011;8679;50.842;4.322;2023-07-22T01:14:00;5.70;;;2.27;;
17127;SDS011;8679;50.842;4.322;2023-07-22T01:16:29;2.92;;;2.10;;
17127;SDS011;8679;50.842;4.322;2023-07-22T01:18:55;8.63;;;2.13;;
17127;SDS011;8679;50.842;4.322;2023-07-22T01:21:22;3.15;;;1.92;;
17127;SDS011;8679;50.842;4.322;2023-07-22T01:23:48;3.22;;;1.90;;
17127;SDS011;8679;50.842;4.322;2023-07-22T01:26:15;4.17;;;1.97;;
17127;SDS011;8679;50.842;4.322;2023-07-22T01:28:41;7.45;;;2.28;;
17127;SDS011;8679;50.842;4.322;2023-07-22T01:31:06;4.10;;;2.37;;
17127;SDS011;8679;50.842;4.322;2023-07-22T01:33:32;2.50;;;1.43;;
17127;SDS011;8679;50.842;4.322;2023-07-22T01:35:59;3.83;;;2.23;;
17127;SDS011;8679;50.842;4.322;2023-07-22T01:38:25;4.32;;;1.92;;
17127;SDS011;8679;50.842;4.322;2023-07-22T01:40:51;5.20;;;2.50;;
17127;SDS011;8679;50.842;4.322;2023-07-22T01:43:17;2.38;;;1.65;;
17127;SDS011;8679;50.842;4.322;2023-07-22T01:45:42;2.97;;;1.50;;
17127;SDS011;8679;50.842;4.322;2023-07-22T01:48:08;4.40;;;2.40;;
17127;SDS011;8679;50.842;4.322;2023-07-22T01:50:34;4.13;;;2.30;;
17127;SDS011;8679;50.842;4.322;2023-07-22T01:52:59;3.17;;;2.53;;
17127;SDS011;8679;50.842;4.322;2023-07-22T01:55:25;2.53;;;1.80;;
17127;SDS011;8679;50.842;4.322;2023-07-22T01:57:50;5.23;;;2.57;;
17127;SDS011;8679;50.842;4.322;2023-07-22T02:00:16;7.17;;;2.43;;
17127;SDS011;8679;50.842;4.322;2023-07-22T02:02:42;3.93;;;1.80;;
17127;SDS011;8679;50.842;4.322;2023-07-22T02:05:08;3.50;;;2.37;;
17127;SDS011;8679;50.842;4.322;2023-07-22T02:07:37;7.87;;;2.13;;
17127;SDS011;8679;50.842;4.322;2023-07-22T02:10:03;4.77;;;3.00;;
17127;SDS011;8679;50.842;4.322;2023-07-22T02:12:30;4.87;;;2.53;;
17127;SDS011;8679;50.842;4.322;2023-07-22T02:14:56;4.77;;;2.33;;
17127;SDS011;8679;50.842;4.322;2023-07-22T02:17:21;2.97;;;1.63;;
17127;SDS011;8679;50.842;4.322;2023-07-22T02:19:48;3.07;;;2.13;;
17127;SDS011;8679;50.842;4.322;2023-07-22T02:22:15;3.08;;;1.63;;
17127;SDS011;8679;50.842;4.322;2023-07-22T02:24:41;3.80;;;2.33;;
17127;SDS011;8679;50.842;4.322;2023-07-22T02:27:07;3.70;;;2.43;;
17127;SDS011;8679;50.842;4.322;2023-07-22T02:29:35;7.43;;;2.90;;
17127;SDS011;8679;50.842;4.322;2023-07-22T02:32:01;5.20;;;2.07;;
17127;SDS011;8679;50.842;4.322;2023-07-22T02:34:27;3.47;;;2.07;;
17127;SDS011;8679;50.842;4.322;2023-07-22T02:36:54;4.60;;;2.90;;
17127;SDS011;8679;50.842;4.322;2023-07-22T02:39:19;7.90;;;2.33;;
17127;SDS011;8679;50.842;4.322;2023-07-22T02:41:45;3.50;;;2.17;;
17127;SDS011;8679;50.842;4.322;2023-07-22T02:44:11;4.20;;;2.60;;
17127;SDS011;8679;50.842;4.322;2023-07-22T02:46:38;3.97;;;2.17;;
17127;SDS011;8679;50.842;4.322;2023-07-22T02:49:04;3.90;;;2.30;;
17127;SDS011;8679;50.842;4.322;2023-07-22T02:51:30;4.60;;;3.03;;
17127;SDS011;8679;50.842;4.322;2023-07-22T02:53:56;4.15;;;2.05;;
17127;SDS011;8679;50.842;4.322;2023-07-22T02:56:21;3.37;;;2.27;;
17127;SDS011;8679;50.842;4.322;2023-07-22T02:58:48;3.97;;;2.20;;
17127;SDS011;8679;50.842;4.322;2023-07-22T03:01:15;4.63;;;2.13;;
17127;SDS011;8679;50.842;4.322;2023-07-22T03:03:40;4.33;;;2.20;;
17127;SDS011;8679;50.842;4.322;2023-07-22T03:06:06;3.43;;;2.03;;
17127;SDS011;8679;50.842;4.322;2023-07-22T03:08:33;5.33;;;2.97;;
17127;SDS011;8679;50.842;4.322;2023-07-22T03:10:58;3.63;;;2.00;;
17127;SDS011;8679;50.842;4.322;2023-07-22T03:13:24;3.33;;;2.50;;
17127;SDS011;8679;50.842;4.322;2023-07-22T03:15:50;4.60;;;2.93;;
17127;SDS011;8679;50.842;4.322;2023-07-22T03:18:15;3.97;;;1.93;;
17127;SDS011;8679;50.842;4.322;2023-07-22T03:20:41;6.37;;;3.70;;
17127;SDS011;8679;50.842;4.322;2023-07-22T03:23:07;6.07;;;2.83;;
17127;SDS011;8679;50.842;4.322;2023-07-22T03:25:33;7.80;;;3.10;;
17127;SDS011;8679;50.842;4.322;2023-07-22T03:28:00;3.27;;;2.17;;
17127;SDS011;8679;50.842;4.322;2023-07-22T03:30:28;4.50;;;2.90;;
17127;SDS011;8679;50.842;4.322;2023-07-22T03:32:54;7.00;;;2.87;;
17127;SDS011;8679;50.842;4.322;2023-07-22T03:35:20;7.10;;;2.53;;
17127;SDS011;8679;50.842;4.322;2023-07-22T03:37:46;7.03;;;2.90;;
17127;SDS011;8679;50.842;4.322;2023-07-22T03:40:11;5.90;;;2.63;;
17127;SDS011;8679;50.842;4.322;2023-07-22T03:42:45;5.30;;;2.40;;
17127;SDS011;8679;50.842;4.322;2023-07-22T03:45:12;7.40;;;2.67;;
17127;SDS011;8679;50.842;4.322;2023-07-22T03:47:39;3.50;;;2.27;;
17127;SDS011;8679;50.842;4.322;2023-07-22T03:50:05;5.70;;;2.53;;
17127;SDS011;8679;50.842;4.322;2023-07-22T03:52:31;4.27;;;2.87;;
17127;SDS011;8679;50.842;4.322;2023-07-22T03:54:57;5.60;;;2.57;;
17127;SDS011;8679;50.842;4.322;2023-07-22T03:57:26;3.70;;;1.80;;
17127;SDS011;8679;50.842;4.322;2023-07-22T03:59:53;4.97;;;2.50;;
17127;SDS011;8679;50.842;4.322;2023-07-22T04:02:19;4.23;;;2.37;;
17127;SDS011;8679;50.842;4.322;2023-07-22T04:04:45;3.10;;;2.17;;
17127;SDS011;8679;50.842;4.322;2023-07-22T04:07:10;5.17;;;2.40;;
17127;SDS011;8679;50.842;4.322;2023-07-22T04:09:36;4.00;;;2.40;;
17127;SDS011;8679;50.842;4.322;2023-07-22T04:12:02;4.03;;;2.20;;
17127;SDS011;8679;50.842;4.322;2023-07-22T04:14:28;4.23;;;2.43;;
17127;SDS011;8679;50.842;4.322;2023-07-22T04:16:54;6.50;;;2.37;;
17127;SDS011;8679;50.842;4.322;2023-07-22T04:19:19;3.23;;;2.10;;
17127;SDS011;8679;50.842;4.322;2023-07-22T04:21:45;3.33;;;2.17;;
17127;SDS011;8679;50.842;4.322;2023-07-22T04:24:11;6.00;;;2.73;;
17127;SDS011;8679;50.842;4.322;2023-07-22T04:26:36;7.83;;;3.40;;
17127;SDS011;8679;50.842;4.322;2023-07-22T04:29:02;3.90;;;2.47;;
17127;SDS011;8679;50.842;4.322;2023-07-22T04:31:28;4.73;;;2.63;;
17127;SDS011;8679;50.842;4.322;2023-07-22T04:33:54;8.00;;;3.03;;
17127;SDS011;8679;50.842;4.322;2023-07-22T04:36:19;4.40;;;2.43;;
17127;SDS011;8679;50.842;4.322;2023-07-22T04:38:45;4.03;;;2.00;;
17127;SDS011;8679;50.842;4.322;2023-07-22T04:41:10;2.13;;;1.67;;
17127;SDS011;8679;50.842;4.322;2023-07-22T04:43:36;4.63;;;2.63;;
17127;SDS011;8679;50.842;4.322;2023-07-22T04:46:02;5.63;;;1.93;;
17127;SDS011;8679;50.842;4.322;2023-07-22T04:48:27;6.90;;;2.73;;
17127;SDS011;8679;50.842;4.322;2023-07-22T04:50:56;4.67;;;2.70;;
17127;SDS011;8679;50.842;4.322;2023-07-22T04:53:22;2.97;;;1.87;;
17127;SDS011;8679;50.842;4.322;2023-07-22T04:55:47;5.60;;;2.40;;
17127;SDS011;8679;50.842;4.322;2023-07-22T04:58:13;4.37;;;1.90;;
17127;SDS011;8679;50.842;4.322;2023-07-22T05:00:39;3.43;;;2.10;;
17127;SDS011;8679;50.842;4.322;2023-07-22T05:03:07;4.43;;;2.27;;
17127;SDS011;8679;50.842;4.322;2023-07-22T05:05:32;6.23;;;2.80;;
17127;SDS011;8679;50.842;4.322;2023-07-22T05:07:58;4.80;;;2.37;;
17127;SDS011;8679;50.842;4.322;2023-07-22T05:10:24;3.93;;;2.60;;
17127;SDS011;8679;50.842;4.322;2023-07-22T05:12:50;5.23;;;2.47;;
17127;SDS011;8679;50.842;4.322;2023-07-22T05:15:15;4.77;;;2.53;;
17127;SDS011;8679;50.842;4.322;2023-07-22T05:17:41;8.07;;;2.23;;
17127;SDS011;8679;50.842;4.322;2023-07-22T05:20:07;3.13;;;1.90;;
17127;SDS011;8679;50.842;4.322;2023-07-22T05:22:37;4.93;;;2.30;;
17127;SDS011;8679;50.842;4.322;2023-07-22T05:25:04;3.90;;;2.20;;
17127;SDS011;8679;50.842;4.322;2023-07-22T05:27:30;4.03;;;3.07;;
17127;SDS011;8679;50.842;4.322;2023-07-22T05:29:56;4.63;;;2.40;;
17127;SDS011;8679;50.842;4.322;2023-07-22T05:32:21;4.17;;;2.30;;
17127;SDS011;8679;50.842;4.322;2023-07-22T05:34:47;7.67;;;3.07;;
17127;SDS011;8679;50.842;4.322;2023-07-22T05:37:13;2.97;;;1.73;;
17127;SDS011;8679;50.842;4.322;2023-07-22T05:39:38;4.73;;;1.80;;
17127;SDS011;8679;50.842;4.322;2023-07-22T05:42:04;2.53;;;2.10;;
17127;SDS011;8679;50.842;4.322;2023-07-22T05:44:30;5.23;;;2.80;;
17127;SDS011;8679;50.842;4.322;2023-07-22T05:46:55;5.47;;;2.57;;
17127;SDS011;8679;50.842;4.322;2023-07-22T05:49:21;2.77;;;1.97;;
17127;SDS011;8679;50.842;4.322;2023-07-22T05:51:47;2.25;;;1.65;;
17127;SDS011;8679;50.842;4.322;2023-07-22T05:54:12;3.37;;;1.70;;
17127;SDS011;8679;50.842;4.322;2023-07-22T05:56:38;3.63;;;1.60;;
17127;SDS011;8679;50.842;4.322;2023-07-22T05:59:04;5.80;;;1.67;;
17127;SDS011;8679;50.842;4.322;2023-07-22T06:01:29;4.80;;;2.90;;
17127;SDS011;8679;50.842;4.322;2023-07-22T06:03:55;2.50;;;1.70;;
17127;SDS011;8679;50.842;4.322;2023-07-22T06:06:21;2.15;;;1.58;;
17127;SDS011;8679;50.842;4.322;2023-07-22T06:08:46;4.30;;;2.03;;
17127;SDS011;8679;50.842;4.322;2023-07-22T06:11:12;5.90;;;2.13;;
17127;SDS011;8679;50.842;4.322;2023-07-22T06:13:37;3.53;;;1.77;;
17127;SDS011;8679;50.842;4.322;2023-07-22T06:16:03;3.90;;;2.13;;
17127;SDS011;8679;50.842;4.322;2023-07-22T06:18:29;3.70;;;1.73;;
17127;SDS011;8679;50.842;4.322;2023-07-22T06:20:54;7.40;;;1.90;;
17127;SDS011;8679;50.842;4.322;2023-07-22T06:23:20;7.18;;;2.03;;
17127;SDS011;8679;50.842;4.322;2023-07-22T06:25:46;3.27;;;1.83;;
17127;SDS011;8679;50.842;4.322;2023-07-22T06:28:12;3.43;;;1.77;;
17127;SDS011;8679;50.842;4.322;2023-07-22T06:30:37;5.83;;;2.00;;
17127;SDS011;8679;50.842;4.322;2023-07-22T06:33:03;3.57;;;2.00;;
17127;SDS011;8679;50.842;4.322;2023-07-22T06:35:28;2.40;;;1.83;;
17127;SDS011;8679;50.842;4.322;2023-07-22T06:37:54;3.10;;;1.60;;
17127;SDS011;8679;50.842;4.322;2023-07-22T06:40:20;3.88;;;1.95;;
17127;SDS011;8679;50.842;4.322;2023-07-22T06:42:45;10.23;;;1.93;;
17127;SDS011;8679;50.842;4.322;2023-07-22T06:45:11;2.90;;;1.60;;
17127;SDS011;8679;50.842;4.322;2023-07-22T06:47:37;4.07;;;1.88;;
17127;SDS011;8679;50.842;4.322;2023-07-22T06:50:03;3.93;;;2.10;;
17127;SDS011;8679;50.842;4.322;2023-07-22T06:52:32;6.13;;;2.20;;
17127;SDS011;8679;50.842;4.322;2023-07-22T06:54:58;3.50;;;1.65;;
17127;SDS011;8679;50.842;4.322;2023-07-22T06:57:23;1.90;;;1.30;;
17127;SDS011;8679;50.842;4.322;2023-07-22T06:59:51;2.72;;;1.88;;
17127;SDS011;8679;50.842;4.322;2023-07-22T07:02:20;4.22;;;1.98;;
17127;SDS011;8679;50.842;4.322;2023-07-22T07:04:46;4.30;;;2.28;;
17127;SDS011;8679;50.842;4.322;2023-07-22T07:07:12;3.75;;;1.50;;
17127;SDS011;8679;50.842;4.322;2023-07-22T07:09:38;2.58;;;1.67;;
17127;SDS011;8679;50.842;4.322;2023-07-22T07:12:04;3.15;;;1.65;;
17127;SDS011;8679;50.842;4.322;2023-07-22T07:14:30;3.58;;;2.10;;
17127;SDS011;8679;50.842;4.322;2023-07-22T07:16:55;3.35;;;1.73;;
17127;SDS011;8679;50.842;4.322;2023-07-22T07:19:21;2.65;;;1.95;;
17127;SDS011;8679;50.842;4.322;2023-07-22T07:21:47;4.15;;;2.05;;
17127;SDS011;8679;50.842;4.322;2023-07-22T07:24:12;4.82;;;1.60;;
17127;SDS011;8679;50.842;4.322;2023-07-22T07:26:38;4.38;;;1.52;;
17127;SDS011;8679;50.842;4.322;2023-07-22T07:29:04;4.45;;;2.00;;
17127;SDS011;8679;50.842;4.322;2023-07-22T07:31:29;3.20;;;1.95;;
17127;SDS011;8679;50.842;4.322;2023-07-22T07:33:55;3.35;;;1.58;;
17127;SDS011;8679;50.842;4.322;2023-07-22T07:36:21;4.07;;;1.50;;
17127;SDS011;8679;50.842;4.322;2023-07-22T07:38:46;5.95;;;2.25;;
17127;SDS011;8679;50.842;4.322;2023-07-22T07:41:12;1.90;;;1.00;;
17127;SDS011;8679;50.842;4.322;2023-07-22T07:43:41;4.82;;;2.10;;
17127;SDS011;8679;50.842;4.322;2023-07-22T07:48:46;2.15;;;1.45;;
17127;SDS011;8679;50.842;4.322;2023-07-22T07:51:16;6.68;;;1.70;;
17127;SDS011;8679;50.842;4.322;2023-07-22T07:53:43;4.68;;;1.50;;
17127;SDS011;8679;50.842;4.322;2023-07-22T07:56:10;3.47;;;1.73;;
17127;SDS011;8679;50.842;4.322;2023-07-22T07:58:36;3.20;;;1.50;;
17127;SDS011;8679;50.842;4.322;2023-07-22T08:01:02;1.83;;;1.10;;
17127;SDS011;8679;50.842;4.322;2023-07-22T08:03:28;2.63;;;1.45;;
17127;SDS011;8679;50.842;4.322;2023-07-22T08:05:54;4.70;;;1.17;;
17127;SDS011;8679;50.842;4.322;2023-07-22T08:08:21;1.55;;;1.33;;
17127;SDS011;8679;50.842;4.322;2023-07-22T08:10:47;5.05;;;1.65;;
17127;SDS011;8679;50.842;4.322;2023-07-22T08:13:21;2.70;;;1.42;;
17127;SDS011;8679;50.842;4.322;2023-07-22T08:15:47;3.88;;;1.60;;
17127;SDS011;8679;50.842;4.322;2023-07-22T08:18:13;1.08;;;0.80;;
17127;SDS011;8679;50.842;4.322;2023-07-22T08:20:38;1.70;;;1.20;;
17127;SDS011;8679;50.842;4.322;2023-07-22T08:23:04;3.53;;;1.50;;
17127;SDS011;8679;50.842;4.322;2023-07-22T08:25:30;3.30;;;1.35;;
17127;SDS011;8679;50.842;4.322;2023-07-22T08:27:55;1.30;;;0.88;;
17127;SDS011;8679;50.842;4.322;2023-07-22T08:30:21;1.27;;;1.05;;
17127;SDS011;8679;50.842;4.322;2023-07-22T08:32:46;4.22;;;1.23;;
17127;SDS011;8679;50.842;4.322;2023-07-22T08:35:12;1.25;;;0.90;;
17127;SDS011;8679;50.842;4.322;2023-07-22T08:37:38;4.00;;;1.40;;
17127;SDS011;8679;50.842;4.322;2023-07-22T08:40:03;3.00;;;1.20;;
17127;SDS011;8679;50.842;4.322;2023-07-22T08:42:30;2.38;;;1.23;;
17127;SDS011;8679;50.842;4.322;2023-07-22T08:44:59;2.47;;;0.90;;
17127;SDS011;8679;50.842;4.322;2023-07-22T08:47:28;1.73;;;1.00;;
17127;SDS011;8679;50.842;4.322;2023-07-22T08:49:58;1.92;;;0.98;;
17127;SDS011;8679;50.842;4.322;2023-07-22T08:52:26;1.70;;;1.00;;
17127;SDS011;8679;50.842;4.322;2023-07-22T08:54:52;1.92;;;0.93;;
17127;SDS011;8679;50.842;4.322;2023-07-22T08:57:19;1.60;;;0.90;;
17127;SDS011;8679;50.842;4.322;2023-07-22T08:59:46;1.27;;;1.10;;
17127;SDS011;8679;50.842;4.322;2023-07-22T09:02:13;3.28;;;1.45;;
17127;SDS011;8679;50.842;4.322;2023-07-22T09:04:39;1.55;;;0.90;;
17127;SDS011;8679;50.842;4.322;2023-07-22T09:07:09;1.25;;;0.80;;
17127;SDS011;8679;50.842;4.322;2023-07-22T09:09:36;1.33;;;0.60;;
17127;SDS011;8679;50.842;4.322;2023-07-22T09:12:02;1.17;;;0.75;;
17127;SDS011;8679;50.842;4.322;2023-07-22T09:14:30;1.42;;;1.08;;
17127;SDS011;8679;50.842;4.322;2023-07-22T09:16:57;1.90;;;0.65;;
17127;SDS011;8679;50.842;4.322;2023-07-22T09:19:23;2.17;;;0.88;;
17127;SDS011;8679;50.842;4.322;2023-07-22T09:21:49;0.55;;;0.55;;
17127;SDS011;8679;50.842;4.322;2023-07-22T09:24:21;1.27;;;0.65;;
17127;SDS011;8679;50.842;4.322;2023-07-22T09:26:48;0.40;;;0.32;;
17127;SDS011;8679;50.842;4.322;2023-07-22T09:29:14;0.60;;;0.50;;
17127;SDS011;8679;50.842;4.322;2023-07-22T09:31:52;1.90;;;0.98;;
17127;SDS011;8679;50.842;4.322;2023-07-22T09:34:18;1.42;;;0.80;;
17127;SDS011;8679;50.842;4.322;2023-07-22T09:36:55;0.25;;;0.25;;
17127;SDS011;8679;50.842;4.322;2023-07-22T09:39:28;0.73;;;0.70;;
17127;SDS011;8679;50.842;4.322;2023-07-22T09:41:54;0.68;;;0.47;;
17127;SDS011;8679;50.842;4.322;2023-07-22T09:44:20;0.98;;;0.75;;
17127;SDS011;8679;50.842;4.322;2023-07-22T09:46:53;1.45;;;0.70;;
17127;SDS011;8679;50.842;4.322;2023-07-22T09:49:19;0.70;;;0.68;;
17127;SDS011;8679;50.842;4.322;2023-07-22T09:51:45;0.88;;;0.50;;
17127;SDS011;8679;50.842;4.322;2023-07-22T09:54:11;1.00;;;0.75;;
17127;SDS011;8679;50.842;4.322;2023-07-22T09:56:47;0.98;;;0.75;;
17127;SDS011;8679;50.842;4.322;2023-07-22T09:59:13;0.75;;;0.60;;
17127;SDS011;8679;50.842;4.322;2023-07-22T10:01:40;3.80;;;0.93;;
17127;SDS011;8679;50.842;4.322;2023-07-22T10:04:06;0.95;;;0.63;;
17127;SDS011;8679;50.842;4.322;2023-07-22T10:06:33;3.65;;;0.73;;
17127;SDS011;8679;50.842;4.322;2023-07-22T10:09:01;0.70;;;0.52;;
17127;SDS011;8679;50.842;4.322;2023-07-22T10:11:32;0.88;;;0.40;;
17127;SDS011;8679;50.842;4.322;2023-07-22T10:13:58;2.95;;;1.05;;
17127;SDS011;8679;50.842;4.322;2023-07-22T10:16:24;0.50;;;0.50;;
17127;SDS011;8679;50.842;4.322;2023-07-22T10:18:50;0.70;;;0.52;;
17127;SDS011;8679;50.842;4.322;2023-07-22T10:21:16;0.55;;;0.55;;
17127;SDS011;8679;50.842;4.322;2023-07-22T10:23:43;0.35;;;0.35;;
17127;SDS011;8679;50.842;4.322;2023-07-22T10:26:13;1.33;;;0.63;;
17127;SDS011;8679;50.842;4.322;2023-07-22T10:28:41;0.82;;;0.40;;
17127;SDS011;8679;50.842;4.322;2023-07-22T10:31:08;0.70;;;0.55;;
17127;SDS011;8679;50.842;4.322;2023-07-22T10:33:34;0.50;;;0.35;;
17127;SDS011;8679;50.842;4.322;2023-07-22T10:36:07;1.25;;;0.80;;
17127;SDS011;8679;50.842;4.322;2023-07-22T10:38:37;0.45;;;0.40;;
17127;SDS011;8679;50.842;4.322;2023-07-22T10:41:13;0.75;;;0.50;;
17127;SDS011;8679;50.842;4.322;2023-07-22T10:43:42;6.20;;;1.10;;
17127;SDS011;8679;50.842;4.322;2023-07-22T10:46:20;0.63;;;0.57;;
17127;SDS011;8679;50.842;4.322;2023-07-22T10:49:11;1.02;;;0.57;;
17127;SDS011;8679;50.842;4.322;2023-07-22T10:51:38;1.30;;;0.57;;
17127;SDS011;8679;50.842;4.322;2023-07-22T10:54:10;3.20;;;0.70;;
17127;SDS011;8679;50.842;4.322;2023-07-22T10:56:37;0.80;;;0.50;;
17127;SDS011;8679;50.842;4.322;2023-07-22T10:59:03;0.57;;;0.40;;
17127;SDS011;8679;50.842;4.322;2023-07-22T11:06:51;1.38;;;0.73;;
17127;SDS011;8679;50.842;4.322;2023-07-22T11:11:53;0.60;;;0.60;;
17127;SDS011;8679;50.842;4.322;2023-07-22T11:14:21;0.82;;;0.55;;
17127;SDS011;8679;50.842;4.322;2023-07-22T11:16:47;0.95;;;0.80;;
17127;SDS011;8679;50.842;4.322;2023-07-22T11:19:17;2.80;;;1.02;;
17127;SDS011;8679;50.842;4.322;2023-07-22T11:21:47;0.82;;;0.50;;
17127;SDS011;8679;50.842;4.322;2023-07-22T11:24:16;2.20;;;1.00;;
17127;SDS011;8679;50.842;4.322;2023-07-22T11:26:42;0.65;;;0.50;;
17127;SDS011;8679;50.842;4.322;2023-07-22T11:29:09;0.90;;;0.55;;
17127;SDS011;8679;50.842;4.322;2023-07-22T11:31:36;0.60;;;0.50;;
17127;SDS011;8679;50.842;4.322;2023-07-22T11:34:10;0.80;;;0.60;;
17127;SDS011;8679;50.842;4.322;2023-07-22T11:36:37;0.88;;;0.70;;
17127;SDS011;8679;50.842;4.322;2023-07-22T11:39:07;1.10;;;0.60;;
17127;SDS011;8679;50.842;4.322;2023-07-22T11:41:34;0.50;;;0.50;;
17127;SDS011;8679;50.842;4.322;2023-07-22T11:44:01;0.50;;;0.40;;
17127;SDS011;8679;50.842;4.322;2023-07-22T11:46:32;0.75;;;0.70;;
17127;SDS011;8679;50.842;4.322;2023-07-22T11:48:59;1.27;;;0.60;;
17127;SDS011;8679;50.842;4.322;2023-07-22T11:51:25;0.98;;;0.50;;
17127;SDS011;8679;50.842;4.322;2023-07-22T11:53:51;0.80;;;0.50;;
17127;SDS011;8679;50.842;4.322;2023-07-22T11:56:22;0.60;;;0.50;;
17127;SDS011;8679;50.842;4.322;2023-07-22T11:58:50;0.65;;;0.60;;
17127;SDS011;8679;50.842;4.322;2023-07-22T12:01:17;3.33;;;0.50;;
17127;SDS011;8679;50.842;4.322;2023-07-22T12:03:43;0.30;;;0.30;;
17127;SDS011;8679;50.842;4.322;2023-07-22T12:06:09;1.00;;;0.73;;
17127;SDS011;8679;50.842;4.322;2023-07-22T12:08:36;0.57;;;0.50;;
17127;SDS011;8679;50.842;4.322;2023-07-22T12:11:07;0.90;;;0.60;;
17127;SDS011;8679;50.842;4.322;2023-07-22T12:13:36;1.00;;;0.60;;
17127;SDS011;8679;50.842;4.322;2023-07-22T12:16:03;0.63;;;0.43;;
17127;SDS011;8679;50.842;4.322;2023-07-22T12:18:46;1.02;;;0.60;;
17127;SDS011;8679;50.842;4.322;2023-07-22T12:21:15;0.73;;;0.50;;
17127;SDS011;8679;50.842;4.322;2023-07-22T12:23:41;0.90;;;0.73;;
17127;SDS011;8679;50.842;4.322;2023-07-22T12:26:08;0.65;;;0.50;;
17127;SDS011;8679;50.842;4.322;2023-07-22T12:28:33;2.30;;;0.80;;
17127;SDS011;8679;50.842;4.322;2023-07-22T12:30:59;0.73;;;0.50;;
17127;SDS011;8679;50.842;4.322;2023-07-22T12:33:25;0.75;;;0.50;;
17127;SDS011;8679;50.842;4.322;2023-07-22T12:35:53;1.05;;;0.50;;
17127;SDS011;8679;50.842;4.322;2023-07-22T12:38:19;2.03;;;0.57;;
17127;SDS011;8679;50.842;4.322;2023-07-22T12:40:45;1.55;;;0.60;;
17127;SDS011;8679;50.842;4.322;2023-07-22T12:43:11;2.05;;;0.77;;
17127;SDS011;8679;50.842;4.322;2023-07-22T12:45:37;1.77;;;0.40;;
17127;SDS011;8679;50.842;4.322;2023-07-22T12:48:02;0.70;;;0.47;;
17127;SDS011;8679;50.842;4.322;2023-07-22T12:50:30;0.40;;;0.32;;
17127;SDS011;8679;50.842;4.322;2023-07-22T12:52:59;1.52;;;0.63;;
17127;SDS011;8679;50.842;4.322;2023-07-22T12:55:25;0.45;;;0.40;;
17127;SDS011;8679;50.842;4.322;2023-07-22T12:57:51;1.67;;;0.82;;
17127;SDS011;8679;50.842;4.322;2023-07-22T13:00:17;1.08;;;0.65;;
17127;SDS011;8679;50.842;4.322;2023-07-22T13:02:42;0.93;;;0.60;;
17127;SDS011;8679;50.842;4.322;2023-07-22T13:05:08;0.80;;;0.73;;
17127;SDS011;8679;50.842;4.322;2023-07-22T13:07:34;1.20;;;0.30;;
17127;SDS011;8679;50.842;4.322;2023-07-22T13:10:00;0.88;;;0.63;;
17127;SDS011;8679;50.842;4.322;2023-07-22T13:12:28;0.50;;;0.47;;
17127;SDS011;8679;50.842;4.322;2023-07-22T13:14:54;0.70;;;0.35;;
17127;SDS011;8679;50.842;4.322;2023-07-22T13:17:20;0.90;;;0.60;;
17127;SDS011;8679;50.842;4.322;2023-07-22T13:19:46;1.95;;;0.47;;
17127;SDS011;8679;50.842;4.322;2023-07-22T13:22:12;1.42;;;0.60;;
17127;SDS011;8679;50.842;4.322;2023-07-22T13:24:38;0.30;;;0.30;;
17127;SDS011;8679;50.842;4.322;2023-07-22T13:27:04;0.93;;;0.45;;
17127;SDS011;8679;50.842;4.322;2023-07-22T13:29:30;3.03;;;1.35;;
17127;SDS011;8679;50.842;4.322;2023-07-22T13:31:56;0.45;;;0.40;;
17127;SDS011;8679;50.842;4.322;2023-07-22T13:34:21;1.00;;;0.40;;
17127;SDS011;8679;50.842;4.322;2023-07-22T13:36:47;0.77;;;0.50;;
17127;SDS011;8679;50.842;4.322;2023-07-22T13:39:13;0.47;;;0.40;;
17127;SDS011;8679;50.842;4.322;2023-07-22T13:41:39;0.70;;;0.50;;
17127;SDS011;8679;50.842;4.322;2023-07-22T13:44:04;2.35;;;0.70;;
17127;SDS011;8679;50.842;4.322;2023-07-22T13:46:30;0.65;;;0.45;;
17127;SDS011;8679;50.842;4.322;2023-07-22T13:48:56;0.40;;;0.40;;
17127;SDS011;8679;50.842;4.322;2023-07-22T13:51:22;0.63;;;0.60;;
17127;SDS011;8679;50.842;4.322;2023-07-22T13:53:48;0.77;;;0.63;;
17127;SDS011;8679;50.842;4.322;2023-07-22T13:56:13;1.73;;;0.98;;
17127;SDS011;8679;50.842;4.322;2023-07-22T13:58:39;1.45;;;0.50;;
17127;SDS011;8679;50.842;4.322;2023-07-22T14:01:04;1.63;;;0.60;;
17127;SDS011;8679;50.842;4.322;2023-07-22T14:03:30;1.70;;;0.68;;
17127;SDS011;8679;50.842;4.322;2023-07-22T14:05:56;0.65;;;0.47;;
17127;SDS011;8679;50.842;4.322;2023-07-22T14:08:22;0.70;;;0.50;;
17127;SDS011;8679;50.842;4.322;2023-07-22T14:10:48;0.90;;;0.55;;
17127;SDS011;8679;50.842;4.322;2023-07-22T14:13:14;0.75;;;0.63;;
17127;SDS011;8679;50.842;4.322;2023-07-22T14:15:40;1.10;;;0.63;;
17127;SDS011;8679;50.842;4.322;2023-07-22T14:18:06;1.85;;;0.70;;
17127;SDS011;8679;50.842;4.322;2023-07-22T14:20:32;1.65;;;0.60;;
17127;SDS011;8679;50.842;4.322;2023-07-22T14:22:58;1.40;;;0.50;;
17127;SDS011;8679;50.842;4.322;2023-07-22T14:25:24;0.65;;;0.40;;
17127;SDS011;8679;50.842;4.322;2023-07-22T14:27:49;1.20;;;0.75;;
17127;SDS011;8679;50.842;4.322;2023-07-22T14:30:15;0.57;;;0.50;;
17127;SDS011;8679;50.842;4.322;2023-07-22T14:32:41;0.38;;;0.35;;
17127;SDS011;8679;50.842;4.322;2023-07-22T14:35:07;0.90;;;0.52;;
17127;SDS011;8679;50.842;4.322;2023-07-22T14:37:33;0.30;;;0.30;;
17127;SDS011;8679;50.842;4.322;2023-07-22T14:40:01;0.80;;;0.47;;
17127;SDS011;8679;50.842;4.322;2023-07-22T14:42:28;0.93;;;0.43;;
17127;SDS011;8679;50.842;4.322;2023-07-22T14:44:54;1.30;;;0.57;;
17127;SDS011;8679;50.842;4.322;2023-07-22T14:47:20;0.43;;;0.43;;
17127;SDS011;8679;50.842;4.322;2023-07-22T14:49:46;2.17;;;0.40;;
17127;SDS011;8679;50.842;4.322;2023-07-22T14:52:11;0.95;;;0.95;;
17127;SDS011;8679;50.842;4.322;2023-07-22T14:54:37;3.35;;;0.50;;
17127;SDS011;8679;50.842;4.322;2023-07-22T14:57:03;0.55;;;0.40;;
17127;SDS011;8679;50.842;4.322;2023-07-22T14:59:29;0.50;;;0.40;;
17127;SDS011;8679;50.842;4.322;2023-07-22T15:01:55;0.38;;;0.30;;
17127;SDS011;8679;50.842;4.322;2023-07-22T15:04:20;1.45;;;0.52;;
17127;SDS011;8679;50.842;4.322;2023-07-22T15:06:46;0.90;;;0.43;;